createdAt,value
2019-05-05T00:00:06.780Z,1008.35
2019-05-05T00:01:06.773Z,1008.32
2019-05-05T00:02:06.760Z,1008.33
2019-05-05T00:03:06.785Z,1008.40
2019-05-05T00:04:06.771Z,1008.32
2019-05-05T00:05:08.541Z,1008.37
2019-05-05T00:06:06.719Z,1008.37
2019-05-05T00:07:06.724Z,1008.46
2019-05-05T00:08:06.718Z,1008.48
2019-05-05T00:09:06.692Z,1008.46
2019-05-05T00:10:06.712Z,1008.43
2019-05-05T00:11:06.673Z,1008.48
2019-05-05T00:12:06.693Z,1008.48
2019-05-05T00:13:06.665Z,1008.45
2019-05-05T00:14:06.647Z,1008.50
2019-05-05T00:15:06.654Z,1008.59
2019-05-05T00:16:06.646Z,1008.55
2019-05-05T00:17:06.619Z,1008.53
2019-05-05T00:18:06.619Z,1008.58
2019-05-05T00:19:06.584Z,1008.56
2019-05-05T00:20:06.591Z,1008.61
2019-05-05T00:21:06.560Z,1008.57
2019-05-05T00:22:06.560Z,1008.54
2019-05-05T00:23:06.567Z,1008.67
2019-05-05T00:24:06.526Z,1008.58
2019-05-05T00:25:06.529Z,1008.63
2019-05-05T00:26:06.505Z,1008.54
2019-05-05T00:27:06.516Z,1008.60
2019-05-05T00:28:06.518Z,1008.57
2019-05-05T00:29:06.485Z,1008.62
2019-05-05T00:30:06.491Z,1008.65
2019-05-05T00:31:06.474Z,1008.59
2019-05-05T00:32:06.448Z,1008.58
2019-05-05T00:33:06.459Z,1008.64
2019-05-05T00:34:06.444Z,1008.58
2019-05-05T00:35:06.424Z,1008.56
2019-05-05T00:36:07.839Z,1008.56
2019-05-05T00:37:06.408Z,1008.62
2019-05-05T00:38:06.478Z,1008.63
2019-05-05T00:39:06.421Z,1008.61
2019-05-05T00:40:06.357Z,1008.62
2019-05-05T00:41:06.361Z,1008.61
2019-05-05T00:42:06.351Z,1008.58
2019-05-05T00:43:06.368Z,1008.60
2019-05-05T00:44:06.378Z,1008.62
2019-05-05T00:45:06.302Z,1008.60
2019-05-05T00:46:06.316Z,1008.64
2019-05-05T00:47:06.280Z,1008.64
2019-05-05T00:48:06.315Z,1008.63
2019-05-05T00:49:06.264Z,1008.61
2019-05-05T00:50:06.287Z,1008.64
2019-05-05T00:51:06.284Z,1008.69
2019-05-05T00:52:06.242Z,1008.62
2019-05-05T00:53:06.257Z,1008.67
2019-05-05T00:54:06.210Z,1008.67
2019-05-05T00:55:06.216Z,1008.66
2019-05-05T00:56:06.203Z,1008.66
2019-05-05T00:57:06.231Z,1008.72
2019-05-05T00:58:06.170Z,1008.74
2019-05-05T00:59:06.195Z,1008.79
2019-05-05T01:00:06.147Z,1008.76
2019-05-05T01:01:06.154Z,1008.73
2019-05-05T01:02:06.128Z,1008.78
2019-05-05T01:03:06.124Z,1008.78
2019-05-05T01:04:06.170Z,1008.76
2019-05-05T01:05:06.099Z,1008.74
2019-05-05T01:06:06.091Z,1008.78
2019-05-05T01:07:06.073Z,1008.80
2019-05-05T01:08:06.072Z,1008.85
2019-05-05T01:09:06.076Z,1008.87
2019-05-05T01:10:06.075Z,1008.82
2019-05-05T01:11:06.025Z,1008.82
2019-05-05T01:12:06.037Z,1008.84
2019-05-05T01:13:06.012Z,1008.87
2019-05-05T01:14:06.023Z,1008.87
2019-05-05T01:15:06.004Z,1008.84
2019-05-05T01:16:05.988Z,1008.90
2019-05-05T01:17:05.979Z,1008.85
2019-05-05T01:18:05.960Z,1008.88
2019-05-05T01:19:05.982Z,1008.92
2019-05-05T01:20:06.893Z,1008.90
2019-05-05T01:21:05.923Z,1008.92
2019-05-05T01:22:05.916Z,1008.88
2019-05-05T01:23:05.902Z,1008.86
2019-05-05T01:24:05.964Z,1008.90
2019-05-05T01:25:05.888Z,1008.92
2019-05-05T01:26:05.879Z,1008.92
2019-05-05T01:27:05.872Z,1008.99
2019-05-05T01:28:05.853Z,1008.96
2019-05-05T01:29:05.892Z,1008.97
2019-05-05T01:30:05.874Z,1008.99
2019-05-05T01:31:05.836Z,1008.99
2019-05-05T01:32:05.810Z,1008.98
2019-05-05T01:33:05.805Z,1009.00
2019-05-05T01:34:05.794Z,1009.03
2019-05-05T01:35:05.840Z,1009.03
2019-05-05T01:36:05.770Z,1009.12
2019-05-05T01:37:05.781Z,1009.05
2019-05-05T01:38:05.750Z,1009.06
2019-05-05T01:39:05.733Z,1009.13
2019-05-05T01:40:05.774Z,1009.04
2019-05-05T01:41:05.722Z,1009.09
2019-05-05T01:42:05.711Z,1009.16
2019-05-05T01:43:05.705Z,1009.14
2019-05-05T01:44:05.714Z,1009.18
2019-05-05T01:45:05.687Z,1009.16
2019-05-05T01:46:05.670Z,1009.19
2019-05-05T01:47:05.654Z,1009.22
2019-05-05T01:48:05.637Z,1009.25
2019-05-05T01:49:05.633Z,1009.26
2019-05-05T01:50:17.602Z,1009.22
2019-05-05T01:51:06.612Z,1009.25
2019-05-05T01:52:05.599Z,1009.31
2019-05-05T01:53:05.593Z,1009.28
2019-05-05T01:54:05.575Z,1009.32
2019-05-05T01:55:05.613Z,1009.36
2019-05-05T01:56:05.562Z,1009.44
2019-05-05T01:57:05.652Z,1009.38
2019-05-05T01:58:05.540Z,1009.47
2019-05-05T01:59:05.517Z,1009.48
2019-05-05T02:00:05.529Z,1009.45
2019-05-05T02:01:05.548Z,1009.46
2019-05-05T02:02:05.489Z,1009.46
2019-05-05T02:03:05.488Z,1009.50
2019-05-05T02:04:05.699Z,1009.55
2019-05-05T02:05:05.476Z,1009.56
2019-05-05T02:06:05.484Z,1009.57
2019-05-05T02:07:05.585Z,1009.58
2019-05-05T02:08:05.427Z,1009.62
2019-05-05T02:09:05.422Z,1009.53
2019-05-05T02:10:06.172Z,1009.59
2019-05-05T02:11:05.416Z,1009.60
2019-05-05T02:12:05.445Z,1009.64
2019-05-05T02:13:05.437Z,1009.65
2019-05-05T02:14:05.381Z,1009.68
2019-05-05T02:15:05.365Z,1009.62
2019-05-05T02:16:05.344Z,1009.69
2019-05-05T02:17:05.342Z,1009.70
2019-05-05T02:18:05.331Z,1009.69
2019-05-05T02:19:05.353Z,1009.73
2019-05-05T02:20:05.420Z,1009.71
2019-05-05T02:21:05.367Z,1009.77
2019-05-05T02:22:05.514Z,1009.74
2019-05-05T02:23:05.290Z,1009.75
2019-05-05T02:24:05.512Z,1009.82
2019-05-05T02:25:05.249Z,1009.81
2019-05-05T02:26:05.266Z,1009.78
2019-05-05T02:27:05.362Z,1009.82
2019-05-05T02:28:05.233Z,1009.77
2019-05-05T02:29:05.213Z,1009.77
2019-05-05T02:30:06.430Z,1009.75
2019-05-05T02:31:05.688Z,1009.75
2019-05-05T02:32:06.219Z,1009.75
2019-05-05T02:33:06.345Z,1009.75
2019-05-05T02:34:05.530Z,1009.76
2019-05-05T02:35:06.486Z,1009.78
2019-05-05T02:36:05.715Z,1009.77
2019-05-05T02:37:05.606Z,1009.83
2019-05-05T02:38:06.592Z,1009.80
2019-05-05T02:39:05.536Z,1009.81
2019-05-05T02:40:07.530Z,1009.82
2019-05-05T02:41:05.441Z,1009.85
2019-05-05T02:42:05.879Z,1009.84
2019-05-05T02:43:05.590Z,1009.84
2019-05-05T02:44:05.316Z,1009.88
2019-05-05T02:45:05.713Z,1009.84
2019-05-05T02:46:05.635Z,1009.92
2019-05-05T02:47:05.049Z,1009.84
2019-05-05T02:48:06.067Z,1009.93
2019-05-05T02:49:05.648Z,1009.89
2019-05-05T02:50:05.440Z,1009.92
2019-05-05T02:51:06.954Z,1009.94
2019-05-05T02:52:05.223Z,1009.90
2019-05-05T02:53:05.016Z,1009.97
2019-05-05T02:54:04.949Z,1009.99
2019-05-05T02:55:04.936Z,1010.07
2019-05-05T02:56:04.959Z,1010.05
2019-05-05T02:57:04.909Z,1010.13
2019-05-05T02:58:04.914Z,1010.04
2019-05-05T02:59:04.890Z,1010.11
2019-05-05T03:00:04.893Z,1010.14
2019-05-05T03:01:05.011Z,1010.12
2019-05-05T03:02:04.877Z,1010.13
2019-05-05T03:03:04.847Z,1010.18
2019-05-05T03:04:04.842Z,1010.13
2019-05-05T03:05:04.824Z,1010.20
2019-05-05T03:06:04.830Z,1010.18
2019-05-05T03:07:04.866Z,1010.21
2019-05-05T03:08:04.938Z,1010.19
2019-05-05T03:09:04.843Z,1010.18
2019-05-05T03:10:04.777Z,1010.20
2019-05-05T03:11:04.776Z,1010.26
2019-05-05T03:12:05.006Z,1010.17
2019-05-05T03:13:04.951Z,1010.17
2019-05-05T03:14:04.732Z,1010.20
2019-05-05T03:15:04.723Z,1010.29
2019-05-05T03:16:04.706Z,1010.24
2019-05-05T03:17:04.759Z,1010.23
2019-05-05T03:18:04.697Z,1010.23
2019-05-05T03:19:04.690Z,1010.27
2019-05-05T03:20:04.666Z,1010.33
2019-05-05T03:21:07.374Z,1010.22
2019-05-05T03:22:04.666Z,1010.24
2019-05-05T03:23:04.654Z,1010.29
2019-05-05T03:24:04.646Z,1010.26
2019-05-05T03:25:04.753Z,1010.35
2019-05-05T03:26:04.607Z,1010.35
2019-05-05T03:27:04.613Z,1010.32
2019-05-05T03:28:04.583Z,1010.37
2019-05-05T03:29:04.842Z,1010.39
2019-05-05T03:30:05.224Z,1010.38
2019-05-05T03:31:05.150Z,1010.39
2019-05-05T03:32:05.752Z,1010.48
2019-05-05T03:33:05.630Z,1010.46
2019-05-05T03:34:05.905Z,1010.51
2019-05-05T03:35:04.522Z,1010.52
2019-05-05T03:36:04.528Z,1010.53
2019-05-05T03:37:04.495Z,1010.55
2019-05-05T03:38:04.513Z,1010.51
2019-05-05T03:39:05.173Z,1010.54
2019-05-05T03:40:04.455Z,1010.54
2019-05-05T03:41:04.454Z,1010.55
2019-05-05T03:42:04.430Z,1010.55
2019-05-05T03:43:04.446Z,1010.54
2019-05-05T03:44:04.836Z,1010.61
2019-05-05T03:45:04.406Z,1010.56
2019-05-05T03:46:04.514Z,1010.55
2019-05-05T03:47:04.404Z,1010.59
2019-05-05T03:48:04.662Z,1010.67
2019-05-05T03:49:04.889Z,1010.63
2019-05-05T03:50:04.485Z,1010.67
2019-05-05T03:51:17.446Z,1010.72
2019-05-05T03:52:05.334Z,1010.67
2019-05-05T03:53:04.973Z,1010.69
2019-05-05T03:54:04.550Z,1010.71
2019-05-05T03:55:04.295Z,1010.68
2019-05-05T03:56:04.285Z,1010.67
2019-05-05T03:57:04.272Z,1010.73
2019-05-05T03:58:04.292Z,1010.73
2019-05-05T03:59:04.849Z,1010.77
2019-05-05T04:00:04.487Z,1010.78
2019-05-05T04:01:04.350Z,1010.79
2019-05-05T04:02:04.236Z,1010.76
2019-05-05T04:03:04.368Z,1010.76
2019-05-05T04:04:04.197Z,1010.81
2019-05-05T04:05:04.195Z,1010.79
2019-05-05T04:06:04.424Z,1010.85
2019-05-05T04:07:04.844Z,1010.82
2019-05-05T04:08:04.191Z,1010.88
2019-05-05T04:09:04.338Z,1010.82
2019-05-05T04:10:04.144Z,1010.91
2019-05-05T04:11:04.120Z,1010.95
2019-05-05T04:12:04.570Z,1010.96
2019-05-05T04:13:04.752Z,1010.98
2019-05-05T04:14:04.106Z,1010.98
2019-05-05T04:15:04.088Z,1010.95
2019-05-05T04:16:04.115Z,1011.00
2019-05-05T04:17:04.057Z,1011.02
2019-05-05T04:18:04.110Z,1011.01
2019-05-05T04:19:04.063Z,1011.02
2019-05-05T04:20:04.063Z,1011.01
2019-05-05T04:21:04.077Z,1010.99
2019-05-05T04:22:04.313Z,1010.99
2019-05-05T04:23:04.032Z,1010.96
2019-05-05T04:24:04.150Z,1011.04
2019-05-05T04:25:04.651Z,1011.09
2019-05-05T04:26:04.005Z,1011.06
2019-05-05T04:27:04.144Z,1011.08
2019-05-05T04:28:04.512Z,1011.04
2019-05-05T04:29:05.357Z,1011.07
2019-05-05T04:30:03.974Z,1011.01
2019-05-05T04:31:04.264Z,1011.12
2019-05-05T04:32:04.602Z,1011.08
2019-05-05T04:33:03.931Z,1011.14
2019-05-05T04:34:04.248Z,1011.14
2019-05-05T04:35:03.868Z,1011.15
2019-05-05T04:36:03.998Z,1011.19
2019-05-05T04:37:04.250Z,1011.21
2019-05-05T04:38:04.777Z,1011.20
2019-05-05T04:39:03.881Z,1011.18
2019-05-05T04:40:04.192Z,1011.21
2019-05-05T04:41:03.851Z,1011.25
2019-05-05T04:42:04.788Z,1011.26
2019-05-05T04:43:04.036Z,1011.32
2019-05-05T04:44:04.067Z,1011.21
2019-05-05T04:45:04.297Z,1011.24
2019-05-05T04:46:04.542Z,1011.27
2019-05-05T04:47:03.930Z,1011.28
2019-05-05T04:48:04.321Z,1011.25
2019-05-05T04:49:03.787Z,1011.24
2019-05-05T04:50:04.327Z,1011.29
2019-05-05T04:51:04.777Z,1011.29
2019-05-05T04:52:04.174Z,1011.32
2019-05-05T04:53:04.550Z,1011.32
2019-05-05T04:54:03.930Z,1011.36
2019-05-05T04:55:04.002Z,1011.29
2019-05-05T04:56:04.290Z,1011.35
2019-05-05T04:57:04.505Z,1011.35
2019-05-05T04:58:04.647Z,1011.36
2019-05-05T04:59:04.071Z,1011.26
2019-05-05T05:00:04.167Z,1011.27
2019-05-05T05:01:04.668Z,1011.34
2019-05-05T05:02:04.047Z,1011.36
2019-05-05T05:03:04.437Z,1011.36
2019-05-05T05:04:03.794Z,1011.35
2019-05-05T05:05:04.081Z,1011.38
2019-05-05T05:06:04.169Z,1011.40
2019-05-05T05:07:04.664Z,1011.42
2019-05-05T05:08:03.830Z,1011.36
2019-05-05T05:09:04.039Z,1011.38
2019-05-05T05:10:04.438Z,1011.39
2019-05-05T05:11:03.749Z,1011.39
2019-05-05T05:12:04.129Z,1011.42
2019-05-05T05:13:04.632Z,1011.53
2019-05-05T05:14:03.937Z,1011.49
2019-05-05T05:15:04.320Z,1011.48
2019-05-05T05:16:04.514Z,1011.43
2019-05-05T05:17:03.563Z,1011.46
2019-05-05T05:18:04.114Z,1011.48
2019-05-05T05:19:04.305Z,1011.47
2019-05-05T05:20:03.823Z,1011.45
2019-05-05T05:21:03.997Z,1011.47
2019-05-05T05:22:04.953Z,1011.48
2019-05-05T05:23:03.734Z,1011.54
2019-05-05T05:24:04.021Z,1011.54
2019-05-05T05:25:04.459Z,1011.53
2019-05-05T05:26:05.117Z,1011.48
2019-05-05T05:27:05.021Z,1011.51
2019-05-05T05:28:04.200Z,1011.50
2019-05-05T05:29:04.541Z,1011.52
2019-05-05T05:30:04.675Z,1011.55
2019-05-05T05:31:03.896Z,1011.59
2019-05-05T05:32:04.195Z,1011.55
2019-05-05T05:33:04.362Z,1011.52
2019-05-05T05:34:04.409Z,1011.58
2019-05-05T05:35:03.775Z,1011.59
2019-05-05T05:36:04.068Z,1011.58
2019-05-05T05:37:04.214Z,1011.61
2019-05-05T05:38:04.671Z,1011.57
2019-05-05T05:39:03.509Z,1011.55
2019-05-05T05:40:03.952Z,1011.58
2019-05-05T05:41:04.228Z,1011.59
2019-05-05T05:42:04.523Z,1011.61
2019-05-05T05:43:04.704Z,1011.59
2019-05-05T05:44:03.656Z,1011.65
2019-05-05T05:45:04.110Z,1011.69
2019-05-05T05:46:04.372Z,1011.61
2019-05-05T05:47:03.667Z,1011.65
2019-05-05T05:48:04.097Z,1011.71
2019-05-05T05:49:04.513Z,1011.73
2019-05-05T05:50:04.044Z,1011.67
2019-05-05T05:51:04.189Z,1011.74
2019-05-05T05:52:15.165Z,1011.72
2019-05-05T05:53:04.753Z,1011.75
2019-05-05T05:54:03.765Z,1011.80
2019-05-05T05:55:04.100Z,1011.73
2019-05-05T05:56:04.351Z,1011.80
2019-05-05T05:57:04.305Z,1011.80
2019-05-05T05:58:04.803Z,1011.87
2019-05-05T05:59:03.616Z,1011.86
2019-05-05T06:00:04.066Z,1011.89
2019-05-05T06:01:04.331Z,1011.86
2019-05-05T06:02:11.479Z,1011.89
2019-05-05T06:03:04.117Z,1011.88
2019-05-05T06:04:04.060Z,1011.90
2019-05-05T06:05:04.342Z,1011.89
2019-05-05T06:06:04.769Z,1011.96
2019-05-05T06:07:04.074Z,1011.98
2019-05-05T06:08:04.802Z,1011.91
2019-05-05T06:09:04.305Z,1011.95
2019-05-05T06:10:03.669Z,1011.99
2019-05-05T06:11:04.468Z,1011.98
2019-05-05T06:12:03.611Z,1012.06
2019-05-05T06:13:04.110Z,1011.98
2019-05-05T06:14:04.027Z,1012.08
2019-05-05T06:15:03.846Z,1012.05
2019-05-05T06:16:04.282Z,1012.08
2019-05-05T06:17:04.239Z,1012.10
2019-05-05T06:18:04.663Z,1012.16
2019-05-05T06:19:03.684Z,1012.19
2019-05-05T06:20:04.080Z,1012.17
2019-05-05T06:21:04.530Z,1012.11
2019-05-05T06:22:03.513Z,1012.19
2019-05-05T06:23:04.077Z,1012.28
2019-05-05T06:24:04.511Z,1012.26
2019-05-05T06:25:06.130Z,1012.19
2019-05-05T06:26:06.649Z,1012.25
2019-05-05T06:27:03.754Z,1012.27
2019-05-05T06:28:04.310Z,1012.31
2019-05-05T06:29:04.383Z,1012.29
2019-05-05T06:30:04.486Z,1012.30
2019-05-05T06:31:04.610Z,1012.30
2019-05-05T06:32:04.001Z,1012.35
2019-05-05T06:33:04.718Z,1012.34
2019-05-05T06:34:03.710Z,1012.32
2019-05-05T06:35:03.667Z,1012.34
2019-05-05T06:36:03.760Z,1012.38
2019-05-05T06:37:04.248Z,1012.35
2019-05-05T06:38:04.478Z,1012.33
2019-05-05T06:39:04.470Z,1012.27
2019-05-05T06:40:03.780Z,1012.30
2019-05-05T06:41:04.233Z,1012.45
2019-05-05T06:42:04.369Z,1012.35
2019-05-05T06:43:04.395Z,1012.30
2019-05-05T06:44:03.764Z,1012.32
2019-05-05T06:45:04.147Z,1012.36
2019-05-05T06:46:04.052Z,1012.35
2019-05-05T06:47:04.444Z,1012.35
2019-05-05T06:48:04.287Z,1012.36
2019-05-05T06:49:04.222Z,1012.38
2019-05-05T06:50:03.701Z,1012.41
2019-05-05T06:51:03.965Z,1012.53
2019-05-05T06:52:04.063Z,1012.49
2019-05-05T06:53:04.248Z,1012.50
2019-05-05T06:54:04.505Z,1012.55
2019-05-05T06:55:03.745Z,1012.48
2019-05-05T06:56:04.072Z,1012.55
2019-05-05T06:57:04.340Z,1012.56
2019-05-05T06:58:04.465Z,1012.57
2019-05-05T06:59:04.309Z,1012.59
2019-05-05T07:00:03.686Z,1012.65
2019-05-05T07:01:03.650Z,1012.56
2019-05-05T07:02:04.239Z,1012.56
2019-05-05T07:03:05.755Z,1012.57
2019-05-05T07:04:03.523Z,1012.59
2019-05-05T07:05:04.091Z,1012.59
2019-05-05T07:06:04.359Z,1012.58
2019-05-05T07:07:02.280Z,1012.57
2019-05-05T07:08:04.234Z,1012.59
2019-05-05T07:09:02.228Z,1012.53
2019-05-05T07:10:03.751Z,1012.57
2019-05-05T07:11:04.085Z,1012.57
2019-05-05T07:12:04.303Z,1012.55
2019-05-05T07:13:02.205Z,1012.57
2019-05-05T07:14:03.723Z,1012.53
2019-05-05T07:15:04.126Z,1012.57
2019-05-05T07:16:02.145Z,1012.56
2019-05-05T07:17:02.139Z,1012.52
2019-05-05T07:18:03.714Z,1012.57
2019-05-05T07:19:04.225Z,1012.58
2019-05-05T07:20:03.754Z,1012.59
2019-05-05T07:21:03.651Z,1012.53
2019-05-05T07:22:04.098Z,1012.51
2019-05-05T07:23:05.027Z,1012.58
2019-05-05T07:24:03.938Z,1012.61
2019-05-05T07:25:02.053Z,1012.61
2019-05-05T07:26:04.160Z,1012.58
2019-05-05T07:27:02.031Z,1012.62
2019-05-05T07:28:04.104Z,1012.63
2019-05-05T07:29:02.032Z,1012.60
2019-05-05T07:30:02.097Z,1012.58
2019-05-05T07:31:04.179Z,1012.59
2019-05-05T07:32:03.924Z,1012.61
2019-05-05T07:33:04.443Z,1012.61
2019-05-05T07:34:01.959Z,1012.63
2019-05-05T07:35:03.951Z,1012.65
2019-05-05T07:36:05.842Z,1012.66
2019-05-05T07:37:03.843Z,1012.61
2019-05-05T07:38:01.925Z,1012.63
2019-05-05T07:39:03.850Z,1012.67
2019-05-05T07:40:04.100Z,1012.68
2019-05-05T07:41:03.658Z,1012.60
2019-05-05T07:42:01.875Z,1012.60
2019-05-05T07:43:01.947Z,1012.59
2019-05-05T07:44:01.871Z,1012.63
2019-05-05T07:45:04.087Z,1012.64
2019-05-05T07:46:01.845Z,1012.58
2019-05-05T07:47:03.659Z,1012.55
2019-05-05T07:48:01.848Z,1012.55
2019-05-05T07:49:03.716Z,1012.57
2019-05-05T07:50:04.007Z,1012.65
2019-05-05T07:51:05.124Z,1012.59
2019-05-05T07:52:03.946Z,1012.59
2019-05-05T07:53:12.242Z,1012.68
2019-05-05T07:54:03.818Z,1012.64
2019-05-05T07:55:03.617Z,1012.62
2019-05-05T07:56:03.580Z,1012.63
2019-05-05T07:57:01.733Z,1012.62
2019-05-05T07:58:01.700Z,1012.60
2019-05-05T07:59:03.814Z,1012.63
2019-05-05T08:00:01.687Z,1012.61
2019-05-05T08:01:01.682Z,1012.79
2019-05-05T08:02:03.878Z,1012.64
2019-05-05T08:03:03.595Z,1012.71
2019-05-05T08:04:01.675Z,1012.73
2019-05-05T08:05:01.626Z,1012.69
2019-05-05T08:06:03.813Z,1012.60
2019-05-05T08:07:01.610Z,1012.75
2019-05-05T08:08:01.591Z,1012.66
2019-05-05T08:09:03.933Z,1012.74
2019-05-05T08:10:01.585Z,1012.68
2019-05-05T08:11:01.574Z,1012.73
2019-05-05T08:12:01.567Z,1012.75
2019-05-05T08:13:01.558Z,1012.72
2019-05-05T08:14:03.845Z,1012.67
2019-05-05T08:15:01.531Z,1012.60
2019-05-05T08:16:03.680Z,1012.75
2019-05-05T08:17:01.499Z,1012.77
2019-05-05T08:18:01.508Z,1012.80
2019-05-05T08:19:03.739Z,1012.71
2019-05-05T08:20:03.855Z,1012.75
2019-05-05T08:21:01.496Z,1012.71
2019-05-05T08:22:03.533Z,1012.69
2019-05-05T08:23:01.428Z,1012.75
2019-05-05T08:24:01.416Z,1012.70
2019-05-05T08:25:01.436Z,1012.74
2019-05-05T08:26:01.435Z,1012.73
2019-05-05T08:27:01.612Z,1012.70
2019-05-05T08:28:01.385Z,1012.67
2019-05-05T08:29:01.396Z,1012.72
2019-05-05T08:30:03.116Z,1012.72
2019-05-05T08:31:01.351Z,1012.71
2019-05-05T08:32:01.354Z,1012.72
2019-05-05T08:33:01.324Z,1012.69
2019-05-05T08:34:01.328Z,1012.57
2019-05-05T08:35:01.400Z,1012.68
2019-05-05T08:36:01.333Z,1012.69
2019-05-05T08:37:01.287Z,1012.72
2019-05-05T08:38:01.285Z,1012.78
2019-05-05T08:39:01.261Z,1012.78
2019-05-05T08:40:01.307Z,1012.79
2019-05-05T08:41:01.296Z,1012.80
2019-05-05T08:42:01.231Z,1012.77
2019-05-05T08:43:01.220Z,1012.79
2019-05-05T08:44:01.209Z,1012.66
2019-05-05T08:45:01.242Z,1012.72
2019-05-05T08:46:01.216Z,1012.72
2019-05-05T08:47:01.184Z,1012.73
2019-05-05T08:48:01.216Z,1012.70
2019-05-05T08:49:01.161Z,1012.71
2019-05-05T08:50:01.152Z,1012.67
2019-05-05T08:51:01.159Z,1012.68
2019-05-05T08:52:01.130Z,1012.79
2019-05-05T08:53:01.115Z,1012.79
2019-05-05T08:54:01.111Z,1012.79
2019-05-05T08:55:01.119Z,1012.78
2019-05-05T08:56:01.102Z,1012.86
2019-05-05T08:57:01.077Z,1012.82
2019-05-05T08:58:01.097Z,1012.88
2019-05-05T08:59:01.047Z,1012.84
2019-05-05T09:00:01.034Z,1012.78
2019-05-05T09:01:01.050Z,1012.75
2019-05-05T09:02:01.015Z,1012.80
2019-05-05T09:03:01.010Z,1012.81
2019-05-05T09:04:00.994Z,1012.65
2019-05-05T09:05:00.996Z,1012.66
2019-05-05T09:06:00.993Z,1012.73
2019-05-05T09:07:00.970Z,1012.67
2019-05-05T09:08:00.952Z,1012.63
2019-05-05T09:09:00.972Z,1012.72
2019-05-05T09:10:00.974Z,1012.70
2019-05-05T09:11:00.959Z,1012.82
2019-05-05T09:12:00.913Z,1012.75
2019-05-05T09:13:00.918Z,1012.77
2019-05-05T09:14:00.902Z,1012.76
2019-05-05T09:15:00.907Z,1012.83
2019-05-05T09:16:00.872Z,1012.95
2019-05-05T09:17:00.900Z,1012.82
2019-05-05T09:18:00.858Z,1012.75
2019-05-05T09:19:00.843Z,1012.85
2019-05-05T09:20:00.844Z,1012.72
2019-05-05T09:21:00.822Z,1012.85
2019-05-05T09:22:00.866Z,1012.71
2019-05-05T09:23:00.810Z,1012.92
2019-05-05T09:24:03.236Z,1012.82
2019-05-05T09:25:00.765Z,1012.73
2019-05-05T09:26:00.784Z,1012.67
2019-05-05T09:27:00.802Z,1012.77
2019-05-05T09:28:03.158Z,1012.74
2019-05-05T09:29:01.771Z,1012.78
2019-05-05T09:30:00.713Z,1012.74
2019-05-05T09:31:00.706Z,1012.69
2019-05-05T09:32:00.703Z,1012.74
2019-05-05T09:33:00.710Z,1012.68
2019-05-05T09:34:00.677Z,1012.69
2019-05-05T09:35:00.693Z,1012.75
2019-05-05T09:36:00.673Z,1012.71
2019-05-05T09:37:00.730Z,1012.71
2019-05-05T09:38:00.626Z,1012.64
2019-05-05T09:39:00.618Z,1012.75
2019-05-05T09:40:00.609Z,1012.77
2019-05-05T09:41:00.629Z,1012.79
2019-05-05T09:42:00.597Z,1012.80
2019-05-05T09:43:00.601Z,1012.77
2019-05-05T09:44:00.596Z,1012.75
2019-05-05T09:45:00.569Z,1012.77
2019-05-05T09:46:00.552Z,1012.80
2019-05-05T09:47:00.551Z,1012.78
2019-05-05T09:48:00.549Z,1012.75
2019-05-05T09:49:00.547Z,1012.78
2019-05-05T09:50:00.509Z,1012.77
2019-05-05T09:51:00.500Z,1012.77
2019-05-05T09:52:00.490Z,1012.80
2019-05-05T09:53:00.485Z,1012.76
2019-05-05T09:54:11.039Z,1012.79
2019-05-05T09:55:03.666Z,1012.81
2019-05-05T09:56:00.469Z,1012.81
2019-05-05T09:57:00.431Z,1012.84
2019-05-05T09:58:00.460Z,1012.79
2019-05-05T09:59:00.429Z,1012.83
2019-05-05T10:00:00.390Z,1012.88
2019-05-05T10:01:00.411Z,1012.78
2019-05-05T10:02:00.368Z,1012.85
2019-05-05T10:03:00.408Z,1012.87
2019-05-05T10:04:00.376Z,1012.84
2019-05-05T10:05:00.340Z,1012.86
2019-05-05T10:06:00.322Z,1012.88
2019-05-05T10:07:00.333Z,1012.91
2019-05-05T10:08:00.349Z,1012.98
2019-05-05T10:09:00.322Z,1012.90
2019-05-05T10:10:00.292Z,1013.08
2019-05-05T10:11:00.299Z,1013.19
2019-05-05T10:12:00.265Z,1013.13
2019-05-05T10:13:00.318Z,1012.92
2019-05-05T10:14:00.257Z,1012.94
2019-05-05T10:15:00.270Z,1012.89
2019-05-05T10:16:00.218Z,1012.93
2019-05-05T10:17:00.206Z,1012.85
2019-05-05T10:18:00.214Z,1012.91
2019-05-05T10:19:00.203Z,1012.90
2019-05-05T10:20:00.212Z,1012.96
2019-05-05T10:21:00.163Z,1012.95
2019-05-05T10:22:00.182Z,1012.98
2019-05-05T10:23:00.142Z,1012.97
2019-05-05T10:24:00.206Z,1012.96
2019-05-05T10:25:00.126Z,1012.86
2019-05-05T10:26:00.126Z,1012.91
2019-05-05T10:27:00.100Z,1012.85
2019-05-05T10:28:00.103Z,1012.90
2019-05-05T10:29:01.230Z,1012.88
2019-05-05T10:30:00.089Z,1012.89
2019-05-05T10:31:00.059Z,1012.77
2019-05-05T10:32:00.047Z,1012.79
2019-05-05T10:33:00.061Z,1012.88
2019-05-05T10:34:00.111Z,1012.84
2019-05-05T10:35:00.014Z,1012.85
2019-05-05T10:36:00.001Z,1012.98
2019-05-05T10:37:00.015Z,1013.00
2019-05-05T10:38:00.003Z,1012.91
2019-05-05T10:39:00.014Z,1012.91
2019-05-05T10:39:59.967Z,1012.85
2019-05-05T10:40:59.945Z,1012.89
2019-05-05T10:41:59.944Z,1012.76
2019-05-05T10:42:59.935Z,1012.83
2019-05-05T10:43:59.958Z,1012.88
2019-05-05T10:44:59.920Z,1012.79
2019-05-05T10:45:59.919Z,1012.89
2019-05-05T10:46:59.900Z,1012.87
2019-05-05T10:47:59.880Z,1012.86
2019-05-05T10:48:59.982Z,1012.81
2019-05-05T10:49:59.885Z,1012.83
2019-05-05T10:50:59.844Z,1012.88
2019-05-05T10:52:03.780Z,1012.87
2019-05-05T10:52:59.850Z,1012.97
2019-05-05T10:53:59.807Z,1013.36
2019-05-05T10:54:59.827Z,1013.14
2019-05-05T10:55:59.794Z,1013.44
2019-05-05T10:56:59.794Z,1012.90
2019-05-05T10:57:59.773Z,1012.99
2019-05-05T10:58:59.758Z,1012.86
2019-05-05T11:00:11.685Z,1012.98
2019-05-05T11:01:00.735Z,1013.27
2019-05-05T11:01:59.745Z,1013.26
2019-05-05T11:02:59.713Z,1013.17
2019-05-05T11:03:59.710Z,1013.14
2019-05-05T11:04:59.714Z,1012.91
2019-05-05T11:05:59.673Z,1013.03
2019-05-05T11:06:59.697Z,1013.21
2019-05-05T11:07:59.667Z,1013.12
2019-05-05T11:08:59.649Z,1013.17
2019-05-05T11:09:59.665Z,1013.22
2019-05-05T11:10:59.631Z,1013.02
2019-05-05T11:11:59.659Z,1013.07
2019-05-05T11:12:59.625Z,1013.11
2019-05-05T11:13:59.597Z,1013.22
2019-05-05T11:14:59.591Z,1013.23
2019-05-05T11:15:59.609Z,1013.15
2019-05-05T11:16:59.594Z,1013.28
2019-05-05T11:17:59.559Z,1013.30
2019-05-05T11:18:59.558Z,1013.36
2019-05-05T11:19:59.536Z,1013.37
2019-05-05T11:20:59.565Z,1013.34
2019-05-05T11:21:59.510Z,1013.39
2019-05-05T11:22:59.508Z,1013.39
2019-05-05T11:23:59.493Z,1013.15
2019-05-05T11:25:01.142Z,1013.30
2019-05-05T11:25:59.501Z,1012.91
2019-05-05T11:26:59.460Z,1013.42
2019-05-05T11:27:59.461Z,1012.99
2019-05-05T11:28:59.458Z,1013.41
2019-05-05T11:29:59.430Z,1013.51
2019-05-05T11:30:59.439Z,1013.04
2019-05-05T11:31:59.415Z,1012.95
2019-05-05T11:32:59.397Z,1012.96
2019-05-05T11:33:59.393Z,1013.07
2019-05-05T11:34:59.383Z,1012.95
2019-05-05T11:35:59.399Z,1013.47
2019-05-05T11:36:59.380Z,1013.04
2019-05-05T11:37:59.356Z,1012.88
2019-05-05T11:38:59.357Z,1013.08
2019-05-05T11:39:59.346Z,1013.37
2019-05-05T11:40:59.387Z,1013.36
2019-05-05T11:41:59.302Z,1013.37
2019-05-05T11:42:59.299Z,1013.37
2019-05-05T11:43:59.276Z,1013.14
2019-05-05T11:44:59.288Z,1013.36
2019-05-05T11:45:59.364Z,1013.38
2019-05-05T11:46:59.254Z,1013.50
2019-05-05T11:47:59.237Z,1013.40
2019-05-05T11:48:59.232Z,1013.29
2019-05-05T11:49:59.215Z,1012.92
2019-05-05T11:50:59.233Z,1012.77
2019-05-05T11:51:59.244Z,1012.94
2019-05-05T11:52:59.206Z,1013.00
2019-05-05T11:53:59.192Z,1012.87
2019-05-05T11:55:09.711Z,1012.89
2019-05-05T11:56:00.177Z,1012.95
2019-05-05T11:56:59.144Z,1012.99
2019-05-05T11:57:59.138Z,1013.01
2019-05-05T11:58:59.130Z,1012.99
2019-05-05T11:59:59.118Z,1013.05
2019-05-05T12:00:59.132Z,1013.00
2019-05-05T12:01:59.094Z,1013.02
2019-05-05T12:02:59.138Z,1013.07
2019-05-05T12:03:59.076Z,1013.16
2019-05-05T12:04:59.060Z,1013.08